Time;durP1;ratioP1;P1;durP2;ratioP2;P2;SDS_P1;SDS_P2;PMS_P1;PMS_P2;Temp;Humidity;BMP_temperature;BMP_pressure;BME280_temperature;BME280_humidity;BME280_pressure;Samples;Min_cycle;Max_cycle;Signal;HPM_P1;HPM_P2
2022/08/19 00:01:31;;;;;;;18.07;16.40;;;23.10;99.90;;;;;;5038721;28;20432;-69
2022/08/19 00:04:02;;;;;;;18.80;16.97;;;23.20;99.90;;;;;;5054333;28;20800;-69
2022/08/19 00:06:29;;;;;;;18.33;16.63;;;23.10;99.90;;;;;;5054235;28;20413;-69
2022/08/19 00:08:56;;;;;;;16.80;15.20;;;23.20;99.90;;;;;;5037746;28;20454;-68
2022/08/19 00:11:22;;;;;;;18.10;16.40;;;22.90;99.90;;;;;;5035348;28;20409;-68
2022/08/19 00:13:49;;;;;;;17.47;15.77;;;23.00;99.90;;;;;;5035387;28;20424;-69
2022/08/19 00:16:18;;;;;;;17.57;15.90;;;23.10;99.90;;;;;;5033984;28;20449;-69
2022/08/19 00:18:43;;;;;;;17.17;15.40;;;23.10;99.90;;;;;;5035788;28;20453;-65
2022/08/19 00:21:09;;;;;;;17.67;15.77;;;23.10;99.90;;;;;;5035882;28;20410;-69
2022/08/19 00:23:36;;;;;;;16.87;15.17;;;23.10;99.90;;;;;;5035808;28;20163;-69
2022/08/19 00:26:05;;;;;;;17.47;15.80;;;23.10;99.90;;;;;;5035486;28;20179;-69
2022/08/19 00:28:32;;;;;;;18.47;16.77;;;23.20;99.90;;;;;;5035393;28;20422;-69
2022/08/19 00:30:59;;;;;;;18.83;17.13;;;23.00;99.90;;;;;;5035105;28;20422;-69
2022/08/19 00:33:25;;;;;;;17.50;15.83;;;23.00;99.90;;;;;;5035058;28;20451;-69
2022/08/19 00:35:50;;;;;;;17.57;15.97;;;23.00;99.90;;;;;;5035289;28;20848;-69
2022/08/19 00:38:16;;;;;;;17.97;16.07;;;22.80;99.90;;;;;;5035160;28;20429;-69
2022/08/19 00:40:46;;;;;;;17.53;16.03;;;23.00;99.90;;;;;;5035471;28;20546;-69
2022/08/19 00:43:15;;;;;;;17.60;16.00;;;22.90;99.90;;;;;;5035152;28;20404;-68
2022/08/19 00:45:43;;;;;;;18.13;16.53;;;22.90;99.90;;;;;;5035213;28;20414;-69
2022/08/19 00:48:09;;;;;;;17.90;16.20;;;23.00;99.90;;;;;;5034790;28;21044;-69
2022/08/19 00:50:35;;;;;;;16.03;14.43;;;22.90;99.90;;;;;;5017862;28;20411;-69
2022/08/19 00:53:02;;;;;;;17.93;16.33;;;22.80;99.90;;;;;;5015503;28;20456;-69
2022/08/19 00:55:28;;;;;;;16.73;15.33;;;22.70;99.90;;;;;;5015540;28;20406;-69
2022/08/19 00:58:09;;;;;;;17.97;16.40;;;22.70;99.90;;;;;;5015242;28;21047;-68
2022/08/19 01:00:37;;;;;;;18.80;16.80;;;22.60;99.90;;;;;;5015467;28;20494;-69
2022/08/19 01:03:08;;;;;;;18.90;17.20;;;22.50;99.90;;;;;;5013657;28;20449;-70
2022/08/19 01:05:35;;;;;;;17.43;15.57;;;22.60;99.90;;;;;;5014062;28;20907;-69
2022/08/19 01:08:02;;;;;;;16.03;14.53;;;22.70;99.90;;;;;;5015130;28;20490;-69
2022/08/19 01:10:32;;;;;;;15.60;14.07;;;22.80;99.90;;;;;;5015237;28;20403;-68
2022/08/19 01:13:00;;;;;;;16.90;15.30;;;22.90;99.90;;;;;;5013767;28;20407;-69
2022/08/19 01:15:32;;;;;;;17.20;15.50;;;23.00;99.90;;;;;;5014974;28;20843;-69
2022/08/19 01:18:00;;;;;;;16.93;15.33;;;23.10;99.90;;;;;;5032086;28;20533;-68
2022/08/19 01:20:26;;;;;;;16.17;14.77;;;22.90;99.90;;;;;;5035212;28;20899;-67
2022/08/19 01:22:55;;;;;;;17.30;15.67;;;22.80;99.90;;;;;;5033321;28;20398;-69
2022/08/19 01:25:31;;;;;;;18.83;17.13;;;22.90;99.90;;;;;;5034370;28;20166;-67
2022/08/19 01:27:57;;;;;;;17.20;15.60;;;22.80;99.90;;;;;;5034499;28;20463;-69
2022/08/19 01:30:31;;;;;;;21.70;18.27;;;23.00;99.90;;;;;;5034629;28;20410;-67
2022/08/19 01:32:58;;;;;;;17.70;16.00;;;22.80;99.90;;;;;;5032269;28;20867;-67
2022/08/19 01:35:25;;;;;;;18.83;16.93;;;22.70;99.90;;;;;;5034146;28;20433;-67
2022/08/19 01:38:05;;;;;;;18.33;16.63;;;22.60;99.90;;;;;;5034483;28;20446;-67
2022/08/19 01:40:33;;;;;;;17.67;16.00;;;22.60;99.90;;;;;;5034621;28;20405;-67
2022/08/19 01:42:59;;;;;;;17.90;16.17;;;22.50;99.90;;;;;;5034347;28;20422;-68
2022/08/19 01:45:27;;;;;;;18.40;16.60;;;22.60;99.90;;;;;;5034006;28;20406;-68
2022/08/19 01:47:54;;;;;;;16.50;14.90;;;22.70;99.90;;;;;;5033665;28;20414;-69
2022/08/19 01:50:20;;;;;;;19.40;17.60;;;22.90;99.90;;;;;;5033869;28;20413;-68
2022/08/19 01:52:46;;;;;;;16.70;15.20;;;23.00;99.90;;;;;;5033721;28;20807;-68
2022/08/19 01:55:14;;;;;;;19.60;17.67;;;23.00;99.90;;;;;;5033688;28;20450;-67
2022/08/19 01:57:45;;;;;;;17.37;15.67;;;22.90;99.90;;;;;;5033743;28;20763;-68
2022/08/19 02:00:15;;;;;;;17.07;15.37;;;22.80;99.90;;;;;;5032365;28;20458;-68
2022/08/19 02:02:41;;;;;;;19.17;17.07;;;23.10;99.90;;;;;;5032529;28;20422;-68
2022/08/19 02:05:07;;;;;;;18.10;16.30;;;22.90;99.90;;;;;;5033952;28;20773;-69
2022/08/19 02:07:34;;;;;;;18.77;16.97;;;22.70;99.90;;;;;;5033680;28;20406;-68
2022/08/19 02:10:04;;;;;;;21.53;19.53;;;22.70;99.90;;;;;;5033935;28;20801;-69
2022/08/19 02:12:30;;;;;;;20.53;18.70;;;22.70;99.90;;;;;;5033346;28;20418;-68
2022/08/19 02:14:55;;;;;;;19.90;17.77;;;22.50;99.90;;;;;;5033406;28;20779;-68
2022/08/19 02:17:21;;;;;;;18.97;17.07;;;22.60;99.90;;;;;;5031659;28;20681;-68
2022/08/19 02:19:47;;;;;;;20.63;18.67;;;22.50;99.90;;;;;;5033601;28;20190;-68
2022/08/19 02:22:13;;;;;;;19.53;17.73;;;22.40;99.90;;;;;;5033490;28;20520;-69
2022/08/19 02:24:38;;;;;;;20.87;18.87;;;22.40;99.90;;;;;;5033250;28;20413;-68
2022/08/19 02:27:05;;;;;;;21.33;19.33;;;22.20;99.90;;;;;;5033317;28;20254;-67
2022/08/19 02:29:31;;;;;;;25.53;18.50;;;22.30;99.90;;;;;;5033215;28;20218;-67
2022/08/19 02:31:56;;;;;;;21.97;19.80;;;22.20;99.90;;;;;;5032816;28;20441;-70
2022/08/19 02:34:24;;;;;;;20.50;18.40;;;22.20;99.90;;;;;;5032751;28;20330;-67
2022/08/19 02:36:50;;;;;;;22.23;20.00;;;22.10;99.90;;;;;;5033144;28;20194;-68
2022/08/19 02:39:16;;;;;;;21.20;19.13;;;22.20;99.90;;;;;;5033464;28;20430;-68
2022/08/19 02:41:41;;;;;;;20.60;18.63;;;22.30;99.90;;;;;;5032026;28;20426;-68
2022/08/19 02:44:07;;;;;;;20.17;17.90;;;22.40;99.90;;;;;;5013383;28;20207;-68
2022/08/19 02:46:33;;;;;;;20.13;18.13;;;22.50;99.90;;;;;;5016261;28;20632;-68
2022/08/19 02:49:03;;;;;;;21.00;19.00;;;22.60;99.90;;;;;;5032679;28;20202;-68
2022/08/19 02:51:35;;;;;;;21.43;19.23;;;22.50;99.90;;;;;;5032894;28;20171;-68
2022/08/19 02:54:02;;;;;;;23.27;20.87;;;22.50;99.90;;;;;;5033349;28;20398;-69
2022/08/19 02:56:27;;;;;;;24.97;22.30;;;22.40;99.90;;;;;;5033017;28;20808;-68
2022/08/19 02:58:54;;;;;;;21.97;19.77;;;22.10;99.90;;;;;;5032769;28;20560;-68
2022/08/19 03:01:26;;;;;;;24.33;21.97;;;22.10;99.90;;;;;;5032926;28;20231;-68
2022/08/19 03:03:52;;;;;;;23.17;20.77;;;22.00;99.90;;;;;;5032676;28;20390;-69
2022/08/19 03:06:19;;;;;;;22.07;19.60;;;21.90;99.90;;;;;;5032695;28;20410;-68
2022/08/19 03:08:46;;;;;;;24.37;22.07;;;22.00;99.90;;;;;;5032848;28;20218;-68
2022/08/19 03:11:18;;;;;;;25.57;23.17;;;22.10;99.90;;;;;;5033065;28;20492;-69
2022/08/19 03:13:45;;;;;;;25.47;23.00;;;22.20;99.90;;;;;;5032417;28;20751;-68
2022/08/19 03:16:12;;;;;;;24.90;22.50;;;21.90;99.90;;;;;;5031926;28;20453;-70
2022/08/19 03:18:38;;;;;;;26.17;23.67;;;21.90;99.90;;;;;;5032321;28;20426;-70
2022/08/19 03:21:04;;;;;;;23.47;21.17;;;21.90;99.90;;;;;;5033087;28;20875;-68
2022/08/19 03:23:30;;;;;;;25.37;22.90;;;21.90;99.90;;;;;;5032853;28;20885;-67
2022/08/19 03:25:55;;;;;;;23.80;21.30;;;22.00;99.90;;;;;;5032834;28;20489;-69
2022/08/19 03:28:21;;;;;;;26.10;23.50;;;22.00;99.90;;;;;;5032565;28;20270;-68
2022/08/19 03:31:07;;;;;;;25.27;22.60;;;21.90;99.90;;;;;;5032850;28;20171;-68
2022/08/19 03:33:34;;;;;;;24.80;22.43;;;21.90;99.90;;;;;;5032240;28;20152;-68
2022/08/19 03:36:02;;;;;;;26.67;23.40;;;22.00;99.90;;;;;;5032571;28;20406;-68
2022/08/19 03:38:28;;;;;;;25.20;22.60;;;21.70;99.90;;;;;;5032388;28;20564;-68
2022/08/19 03:40:53;;;;;;;27.10;24.37;;;21.50;99.90;;;;;;5032465;28;20566;-68
2022/08/19 03:43:19;;;;;;;28.30;25.50;;;21.60;99.90;;;;;;5032438;28;20438;-68
2022/08/19 03:45:44;;;;;;;29.17;26.30;;;21.70;99.90;;;;;;5034013;28;20179;-68
2022/08/19 03:48:10;;;;;;;25.70;23.37;;;21.50;99.90;;;;;;5035651;28;20294;-68
2022/08/19 03:50:39;;;;;;;25.50;23.10;;;21.60;99.90;;;;;;5036437;28;20170;-68
2022/08/19 03:53:06;;;;;;;25.93;23.50;;;21.70;99.90;;;;;;5036192;28;20179;-68
2022/08/19 03:55:31;;;;;;;25.43;23.03;;;21.70;99.90;;;;;;5036206;28;20413;-68
2022/08/19 03:57:57;;;;;;;24.47;22.07;;;21.80;99.90;;;;;;5014939;28;20996;-69
2022/08/19 04:00:22;;;;;;;28.33;25.47;;;21.90;99.90;;;;;;5016214;28;20176;-68
2022/08/19 04:02:48;;;;;;;26.23;23.53;;;21.70;99.90;;;;;;5015805;28;20172;-68
2022/08/19 04:05:14;;;;;;;27.93;25.10;;;21.60;99.90;;;;;;5016251;28;20168;-68
2022/08/19 04:07:40;;;;;;;28.93;26.10;;;21.40;99.90;;;;;;5016310;28;20255;-69
2022/08/19 04:10:06;;;;;;;26.60;24.17;;;21.40;99.90;;;;;;5016097;28;20514;-69
2022/08/19 04:12:32;;;;;;;28.50;25.53;;;21.40;99.90;;;;;;5016382;28;20172;-69
2022/08/19 04:14:58;;;;;;;28.40;25.40;;;21.40;99.90;;;;;;5016050;28;20230;-68
2022/08/19 04:17:24;;;;;;;28.57;25.77;;;21.40;99.90;;;;;;5023830;28;21016;-68
2022/08/19 04:19:49;;;;;;;28.07;25.10;;;21.30;99.90;;;;;;5035822;28;20426;-68
2022/08/19 04:22:15;;;;;;;28.37;25.57;;;21.50;99.90;;;;;;5034207;28;20195;-68
2022/08/19 04:24:41;;;;;;;28.87;26.17;;;21.60;99.90;;;;;;5034033;28;20538;-70
2022/08/19 04:27:06;;;;;;;30.33;27.43;;;21.50;99.90;;;;;;5014715;28;20477;-67
2022/08/19 04:29:33;;;;;;;25.43;23.10;;;21.40;99.90;;;;;;5015763;28;20188;-68
2022/08/19 04:31:59;;;;;;;27.60;24.90;;;21.30;99.90;;;;;;5015492;28;20188;-69
2022/08/19 04:34:28;;;;;;;30.27;27.20;;;21.20;99.90;;;;;;5015618;28;20507;-69
2022/08/19 04:36:56;;;;;;;28.00;25.10;;;21.30;99.90;;;;;;5015448;28;20450;-68
2022/08/19 04:44:54;;;;;;;32.53;29.37;;;21.50;99.90;;;;;;5018080;28;20406;-68
2022/08/19 04:47:20;;;;;;;28.90;25.90;;;21.40;99.90;;;;;;5021070;28;20436;-69
2022/08/19 04:49:45;;;;;;;31.07;28.10;;;21.40;99.90;;;;;;5034994;28;20187;-69
2022/08/19 04:52:11;;;;;;;29.20;26.30;;;21.40;99.90;;;;;;5035456;28;20638;-69
2022/08/19 04:54:37;;;;;;;27.80;24.73;;;21.50;99.90;;;;;;5035502;28;20254;-69
2022/08/19 04:57:05;;;;;;;30.00;27.10;;;21.60;99.90;;;;;;5034697;28;20264;-69
2022/08/19 04:59:33;;;;;;;30.63;27.37;;;21.70;99.90;;;;;;5034711;28;20218;-69
2022/08/19 05:01:58;;;;;;;28.60;25.90;;;21.40;99.90;;;;;;5034976;28;20406;-69
2022/08/19 05:04:24;;;;;;;26.90;24.10;;;21.30;99.90;;;;;;5034799;28;20769;-69
2022/08/19 05:06:51;;;;;;;28.97;26.37;;;21.40;99.90;;;;;;5035132;28;20190;-69
2022/08/19 05:09:17;;;;;;;29.30;26.40;;;21.30;99.90;;;;;;5034870;28;20191;-69
2022/08/19 05:11:43;;;;;;;32.30;29.10;;;21.30;99.90;;;;;;5035026;28;20410;-69
2022/08/19 05:14:12;;;;;;;28.70;25.90;;;21.40;99.90;;;;;;5034701;28;20402;-69
2022/08/19 05:16:38;;;;;;;28.87;26.17;;;21.50;99.90;;;;;;5034646;28;20453;-68
2022/08/19 05:24:34;;;;;;;29.70;24.80;;;21.50;99.90;;;;;;5015160;28;20387;-69
2022/08/19 05:27:02;;;;;;;29.00;26.10;;;21.50;99.90;;;;;;5015025;28;20411;-69
2022/08/19 05:29:28;;;;;;;27.77;25.10;;;21.60;99.90;;;;;;5014473;28;20431;-69
2022/08/19 05:31:54;;;;;;;27.23;24.63;;;21.60;99.90;;;;;;5014685;28;20415;-69
2022/08/19 05:34:24;;;;;;;30.20;27.33;;;21.60;99.90;;;;;;5014139;28;20450;-69
2022/08/19 05:36:56;;;;;;;30.47;27.53;;;21.70;99.90;;;;;;5014665;28;20469;-68
2022/08/19 05:39:23;;;;;;;26.80;24.40;;;21.70;99.90;;;;;;5013523;28;20433;-69
2022/08/19 05:41:55;;;;;;;28.00;25.30;;;21.70;99.90;;;;;;5014191;28;20461;-68
2022/08/19 05:44:21;;;;;;;27.97;25.33;;;21.60;99.90;;;;;;5014340;28;20445;-68
2022/08/19 05:46:48;;;;;;;28.10;25.33;;;21.60;99.90;;;;;;5014482;28;20422;-69
2022/08/19 05:49:15;;;;;;;26.53;23.83;;;21.60;99.90;;;;;;5033440;28;20421;-69
2022/08/19 05:51:42;;;;;;;28.10;25.43;;;21.60;99.90;;;;;;5034170;28;20413;-69
2022/08/19 05:54:08;;;;;;;30.53;27.43;;;21.70;99.90;;;;;;5033838;28;20413;-69
2022/08/19 05:56:38;;;;;;;29.33;26.60;;;21.70;99.90;;;;;;5033729;28;20458;-69
2022/08/19 05:59:08;;;;;;;25.13;22.93;;;21.70;99.90;;;;;;5078887;22;20508;-68
2022/08/19 06:01:34;;;;;;;29.23;26.50;;;21.80;99.90;;;;;;5034090;28;20395;-68
2022/08/19 06:04:00;;;;;;;27.57;24.77;;;21.80;99.90;;;;;;5033655;28;20483;-68
2022/08/19 06:06:26;;;;;;;28.80;26.00;;;21.80;99.90;;;;;;5033756;28;20403;-68
2022/08/19 06:08:51;;;;;;;30.03;27.07;;;21.60;99.90;;;;;;5033090;28;20406;-70
2022/08/19 06:11:24;;;;;;;31.90;28.70;;;21.60;99.90;;;;;;5033516;28;20175;-69
2022/08/19 06:13:53;;;;;;;28.17;25.50;;;21.60;99.90;;;;;;5033675;28;20168;-68
2022/08/19 06:16:23;;;;;;;29.30;26.20;;;21.70;99.90;;;;;;5033258;28;20446;-69
2022/08/19 06:18:51;;;;;;;29.67;26.77;;;21.50;99.90;;;;;;5032243;28;20505;-70
2022/08/19 06:21:22;;;;;;;29.90;27.00;;;21.40;99.90;;;;;;5033393;28;20416;-67
2022/08/19 06:23:48;;;;;;;27.40;24.50;;;21.30;99.90;;;;;;5033730;28;20421;-69
2022/08/19 06:26:15;;;;;;;29.43;26.53;;;21.40;99.90;;;;;;5033500;28;20402;-68
2022/08/19 06:28:44;;;;;;;25.87;23.37;;;21.40;99.90;;;;;;5033564;28;20776;-68
2022/08/19 06:31:13;;;;;;;29.60;26.70;;;21.40;99.90;;;;;;5033407;28;20513;-68
2022/08/19 06:33:39;;;;;;;29.90;26.80;;;21.30;99.90;;;;;;5033087;28;20414;-69
2022/08/19 06:36:05;;;;;;;28.03;25.40;;;21.40;99.90;;;;;;5033677;28;20413;-68
2022/08/19 06:38:33;;;;;;;28.33;25.53;;;21.50;99.90;;;;;;5033716;28;20168;-67
2022/08/19 06:41:03;;;;;;;29.87;26.93;;;21.30;99.90;;;;;;5033492;28;20187;-68
2022/08/19 06:43:29;;;;;;;29.07;26.27;;;21.20;99.90;;;;;;5033366;28;20420;-68
2022/08/19 06:45:55;;;;;;;29.40;26.27;;;21.30;99.90;;;;;;5031889;28;20414;-68
2022/08/19 06:48:21;;;;;;;28.90;26.10;;;21.30;99.90;;;;;;5035233;28;20709;-68
2022/08/19 06:50:49;;;;;;;31.33;28.23;;;21.40;99.90;;;;;;5033228;28;20221;-67
2022/08/19 06:53:15;;;;;;;30.13;27.13;;;21.40;99.90;;;;;;5033103;28;20682;-68
2022/08/19 06:55:41;;;;;;;28.83;25.80;;;21.40;99.90;;;;;;5033024;28;20406;-68
2022/08/19 06:58:06;;;;;;;30.53;27.40;;;21.40;99.90;;;;;;5033165;28;20731;-68
2022/08/19 07:00:32;;;;;;;30.10;27.10;;;21.30;99.90;;;;;;5033102;28;20676;-68
2022/08/19 07:02:58;;;;;;;27.20;24.50;;;21.60;99.90;;;;;;5032897;28;20512;-68
2022/08/19 07:05:24;;;;;;;28.07;25.17;;;21.40;99.90;;;;;;5033300;28;20452;-68
2022/08/19 07:07:50;;;;;;;30.93;28.03;;;21.40;99.90;;;;;;5032838;28;20538;-68
2022/08/19 07:10:15;;;;;;;30.93;27.93;;;21.20;99.90;;;;;;5031606;28;20445;-69
2022/08/19 07:12:41;;;;;;;28.37;25.67;;;21.20;99.90;;;;;;5032688;28;20168;-69
2022/08/19 07:15:09;;;;;;;27.33;24.70;;;21.40;99.90;;;;;;5032817;28;20178;-68
2022/08/19 07:17:39;;;;;;;27.53;25.03;;;21.40;99.90;;;;;;5030833;28;20221;-68
2022/08/19 07:20:09;;;;;;;25.67;23.30;;;21.50;99.90;;;;;;5034389;28;20429;-69
2022/08/19 07:22:35;;;;;;;27.77;25.03;;;21.50;99.90;;;;;;5037034;28;20758;-68
2022/08/19 07:25:03;;;;;;;30.10;27.20;;;21.40;99.90;;;;;;5036794;28;20410;-68
2022/08/19 07:27:28;;;;;;;28.80;26.10;;;21.50;99.90;;;;;;5036700;28;20501;-68
2022/08/19 07:29:54;;;;;;;25.07;22.57;;;21.30;99.90;;;;;;5036316;28;20627;-68
2022/08/19 07:32:20;;;;;;;29.27;26.17;;;21.40;99.90;;;;;;5035105;28;20769;-68
2022/08/19 07:34:45;;;;;;;28.90;26.20;;;21.30;99.90;;;;;;5035998;28;20168;-68
2022/08/19 07:37:11;;;;;;;26.30;23.60;;;21.20;99.90;;;;;;5036292;28;20211;-68
2022/08/19 07:39:38;;;;;;;26.57;23.97;;;21.30;99.90;;;;;;5036488;28;20179;-68
2022/08/19 07:42:07;;;;;;;25.87;23.30;;;21.40;99.90;;;;;;5036627;28;20164;-68
2022/08/19 07:44:34;;;;;;;28.03;25.23;;;21.30;99.90;;;;;;5036326;28;20433;-68
2022/08/19 07:47:00;;;;;;;30.40;24.97;;;21.20;99.90;;;;;;5036579;28;20406;-69
2022/08/19 07:49:27;;;;;;;27.27;24.40;;;21.20;99.90;;;;;;5035803;28;20429;-68
2022/08/19 07:51:56;;;;;;;29.10;26.30;;;21.20;99.90;;;;;;5036235;28;20421;-68
2022/08/19 07:54:23;;;;;;;25.30;22.93;;;21.10;99.90;;;;;;5036129;28;20405;-67
2022/08/19 07:56:50;;;;;;;30.37;27.27;;;21.20;99.90;;;;;;5035918;28;20937;-68
2022/08/19 07:59:17;;;;;;;28.07;25.07;;;21.20;99.90;;;;;;5035729;28;21011;-68
2022/08/19 08:01:43;;;;;;;26.50;23.80;;;21.20;99.90;;;;;;5036181;28;20425;-68
2022/08/19 08:09:41;;;;;;;24.90;22.50;;;21.20;99.90;;;;;;5036231;28;20453;-68
2022/08/19 08:12:12;;;;;;;23.73;21.40;;;21.30;99.90;;;;;;5035706;28;20416;-68
2022/08/19 08:14:41;;;;;;;27.37;24.53;;;21.30;99.90;;;;;;5035711;28;20486;-68
2022/08/19 08:17:08;;;;;;;26.33;23.83;;;21.30;99.90;;;;;;5034720;28;20449;-70
2022/08/19 08:19:35;;;;;;;25.83;23.23;;;21.50;99.90;;;;;;5035381;28;20806;-68
2022/08/19 08:22:01;;;;;;;26.13;23.63;;;21.30;99.90;;;;;;5035569;28;20498;-68
2022/08/19 08:24:30;;;;;;;26.10;23.67;;;21.30;99.90;;;;;;5035664;28;20406;-68
2022/08/19 08:26:57;;;;;;;27.27;24.43;;;21.10;99.90;;;;;;5035725;28;20410;-68
2022/08/19 08:29:23;;;;;;;29.53;26.70;;;21.10;99.90;;;;;;5035601;28;20439;-68
2022/08/19 08:31:48;;;;;;;27.13;24.63;;;21.10;99.90;;;;;;5034694;28;20410;-67
2022/08/19 08:34:14;;;;;;;27.33;24.67;;;21.00;99.90;;;;;;5034854;28;20194;-68
2022/08/19 08:36:44;;;;;;;29.13;26.27;;;20.90;99.90;;;;;;5035224;28;20607;-68
2022/08/19 08:39:16;;;;;;;27.13;24.33;;;20.90;99.90;;;;;;5036128;28;20183;-69
2022/08/19 08:42:20;;;;;;;27.63;24.67;;;21.00;99.90;;;;;;5035192;28;20414;-68
2022/08/19 08:45:14;;;;;;;28.20;25.40;;;21.00;99.90;;;;;;5035222;28;20402;-68
2022/08/19 08:47:44;;;;;;;26.33;23.83;;;20.90;99.90;;;;;;5034931;28;20902;-69
2022/08/19 08:50:22;;;;;;;31.37;24.20;;;21.00;99.90;;;;;;5034789;28;20423;-68
2022/08/19 08:52:52;;;;;;;26.43;23.77;;;21.10;99.90;;;;;;5034813;28;20413;-68
2022/08/19 08:55:24;;;;;;;28.13;25.53;;;21.10;99.90;;;;;;5034300;28;20410;-68
2022/08/19 08:57:54;;;;;;;24.77;22.47;;;21.00;99.90;;;;;;5034849;28;20434;-68
2022/08/19 09:00:22;;;;;;;26.87;24.40;;;21.00;99.90;;;;;;5034730;28;20460;-68
2022/08/19 09:02:48;;;;;;;26.03;23.43;;;21.30;99.90;;;;;;5034732;28;20403;-68
2022/08/19 09:05:14;;;;;;;26.60;23.83;;;21.40;99.90;;;;;;5034617;28;20402;-68
2022/08/19 09:08:02;;;;;;;25.93;23.33;;;21.30;99.90;;;;;;5034724;28;20164;-68
2022/08/19 09:10:38;;;;;;;25.77;23.30;;;21.30;99.90;;;;;;5034634;28;20703;-68
2022/08/19 09:13:41;;;;;;;25.23;22.73;;;21.40;99.90;;;;;;5035170;28;20413;-68
2022/08/19 09:16:20;;;;;;;25.77;21.80;;;21.50;99.90;;;;;;5035397;28;20398;-68
2022/08/19 09:18:52;;;;;;;26.87;24.40;;;21.50;99.90;;;;;;5033012;28;20728;-68
2022/08/19 09:21:18;;;;;;;23.73;21.43;;;21.50;99.90;;;;;;5034662;28;20394;-68
2022/08/19 09:23:44;;;;;;;25.83;23.43;;;21.60;99.90;;;;;;5034702;28;20460;-68
2022/08/19 09:26:13;;;;;;;24.23;21.93;;;21.60;99.90;;;;;;5034712;28;20414;-68
2022/08/19 09:28:43;;;;;;;25.93;21.90;;;21.80;99.90;;;;;;5034502;28;20406;-68
2022/08/19 09:31:29;;;;;;;24.00;21.60;;;21.70;99.90;;;;;;5034434;28;20432;-68
2022/08/19 09:33:57;;;;;;;24.73;22.33;;;21.60;99.90;;;;;;5033934;28;20477;-68
2022/08/19 09:36:24;;;;;;;25.57;22.67;;;21.60;99.90;;;;;;5034067;28;20453;-68
2022/08/19 09:38:51;;;;;;;21.47;19.43;;;21.70;99.90;;;;;;5033869;28;20488;-68
2022/08/19 09:41:19;;;;;;;23.17;20.87;;;21.80;99.90;;;;;;5034066;28;20414;-67
2022/08/19 09:43:46;;;;;;;22.50;20.40;;;21.80;99.90;;;;;;5033400;28;20421;-68
2022/08/19 09:46:12;;;;;;;22.80;19.40;;;21.70;99.90;;;;;;5033964;28;20437;-68
2022/08/19 09:48:39;;;;;;;22.93;19.77;;;21.70;99.90;;;;;;5033294;28;20406;-69
2022/08/19 09:51:10;;;;;;;20.80;18.80;;;21.60;99.90;;;;;;5034254;28;20431;-69
2022/08/19 09:53:37;;;;;;;22.70;20.60;;;21.70;99.90;;;;;;5034312;28;20473;-69
2022/08/19 09:56:04;;;;;;;27.23;20.20;;;22.00;99.90;;;;;;5033742;28;20405;-68
2022/08/19 09:58:30;;;;;;;22.40;20.40;;;22.00;99.90;;;;;;5033385;28;20426;-68
2022/08/19 10:00:58;;;;;;;22.27;20.07;;;22.20;99.90;;;;;;5033701;28;20496;-67
2022/08/19 10:03:25;;;;;;;22.40;20.40;;;22.40;99.90;;;;;;5032889;28;20406;-66
2022/08/19 10:05:51;;;;;;;21.00;19.10;;;22.40;99.90;;;;;;5033701;28;20417;-67
2022/08/19 10:08:20;;;;;;;18.53;16.80;;;22.30;99.90;;;;;;5033253;28;20406;-67
2022/08/19 10:10:47;;;;;;;21.20;19.00;;;22.30;99.90;;;;;;5030896;28;20595;-68
2022/08/19 10:13:14;;;;;;;20.93;18.87;;;22.10;99.90;;;;;;5033068;28;20607;-67
2022/08/19 10:15:40;;;;;;;19.60;17.60;;;22.20;99.90;;;;;;5033705;28;20398;-67
2022/08/19 10:18:07;;;;;;;21.10;19.07;;;22.20;99.90;;;;;;5031700;28;20530;-67
2022/08/19 10:20:35;;;;;;;19.93;18.13;;;22.20;99.90;;;;;;5033976;28;20191;-66
2022/08/19 10:23:03;;;;;;;19.00;17.30;;;22.20;99.90;;;;;;5033160;28;20402;-66
2022/08/19 10:25:29;;;;;;;19.37;16.40;;;22.30;99.90;;;;;;5033255;28;20402;-67
2022/08/19 10:27:55;;;;;;;18.87;17.07;;;22.20;99.90;;;;;;5033430;28;20879;-67
2022/08/19 10:30:21;;;;;;;19.87;18.10;;;22.20;99.90;;;;;;5033280;28;20194;-67
2022/08/19 10:32:46;;;;;;;20.30;18.10;;;22.30;99.90;;;;;;5033053;28;20578;-68
2022/08/19 10:35:13;;;;;;;19.77;17.77;;;22.30;99.90;;;;;;5032866;28;20563;-67
2022/08/19 10:37:39;;;;;;;20.87;18.17;;;22.50;99.90;;;;;;5033365;28;20265;-67
2022/08/19 10:40:07;;;;;;;19.27;17.30;;;22.60;99.90;;;;;;5033007;28;20433;-67
2022/08/19 10:42:33;;;;;;;19.30;17.40;;;22.50;99.90;;;;;;5033060;28;20400;-68
2022/08/19 10:44:58;;;;;;;19.27;17.37;;;22.50;99.90;;;;;;5033292;28;20399;-67
2022/08/19 10:47:24;;;;;;;19.00;17.00;;;22.60;99.90;;;;;;5033081;28;20403;-67
2022/08/19 10:52:34;;;;;;;18.70;16.93;;;22.50;99.90;;;;;;5032900;28;20163;-67
2022/08/19 10:57:45;;;;;;;16.63;14.93;;;22.80;99.90;;;;;;5035395;28;20194;-68
2022/08/19 11:00:13;;;;;;;15.90;14.50;;;23.10;99.90;;;;;;5031476;28;20827;-67
2022/08/19 11:02:38;;;;;;;16.47;14.97;;;23.30;99.90;;;;;;5032985;28;20163;-68
2022/08/19 11:05:06;;;;;;;13.97;12.57;;;23.10;99.90;;;;;;5032604;28;20394;-69
2022/08/19 11:07:32;;;;;;;15.80;13.87;;;22.90;99.90;;;;;;5033142;28;20525;-67
2022/08/19 11:09:58;;;;;;;15.20;13.10;;;23.00;99.90;;;;;;5033197;28;20583;-67
2022/08/19 11:12:24;;;;;;;15.23;13.70;;;23.00;99.90;;;;;;5032713;28;20167;-67
2022/08/19 11:14:50;;;;;;;12.57;11.47;;;22.80;99.90;;;;;;5034081;28;20609;-67
2022/08/19 11:17:15;;;;;;;13.37;12.10;;;22.80;99.90;;;;;;5033039;28;20453;-68
2022/08/19 11:19:42;;;;;;;13.50;12.23;;;23.00;99.90;;;;;;5031661;28;20653;-67
2022/08/19 11:22:09;;;;;;;13.97;12.60;;;23.00;99.90;;;;;;5033224;28;20179;-68
2022/08/19 11:24:35;;;;;;;14.47;12.97;;;23.00;99.90;;;;;;5033567;28;20409;-67
2022/08/19 11:27:04;;;;;;;12.97;11.77;;;23.00;99.90;;;;;;5032941;28;20521;-67
2022/08/19 11:29:30;;;;;;;13.53;12.20;;;23.00;99.90;;;;;;5032711;28;20429;-68
2022/08/19 11:31:56;;;;;;;14.30;12.50;;;23.20;99.90;;;;;;5032838;28;20465;-67
2022/08/19 11:34:25;;;;;;;13.50;12.20;;;23.50;99.90;;;;;;5032718;28;20422;-68
2022/08/19 11:36:51;;;;;;;13.40;12.20;;;23.90;99.90;;;;;;5032946;28;20191;-68
2022/08/19 11:39:20;;;;;;;11.67;10.47;;;24.20;99.90;;;;;;5032666;28;20418;-68
2022/08/19 11:41:47;;;;;;;12.07;10.97;;;24.20;99.90;;;;;;5032646;28;20406;-69
2022/08/19 11:44:13;;;;;;;11.00;10.10;;;24.50;99.90;;;;;;5032806;28;20430;-68
2022/08/19 11:46:40;;;;;;;13.07;10.80;;;24.50;99.90;;;;;;5032472;28;20421;-68
2022/08/19 11:49:09;;;;;;;12.07;10.87;;;24.40;99.90;;;;;;5032077;28;20955;-67
2022/08/19 11:51:36;;;;;;;12.37;11.27;;;24.10;99.90;;;;;;5032505;28;20410;-67
2022/08/19 11:54:05;;;;;;;12.37;11.17;;;23.90;99.90;;;;;;5032235;28;20417;-67
2022/08/19 11:56:31;;;;;;;11.83;10.63;;;24.10;99.90;;;;;;5032426;28;20450;-68
2022/08/19 11:58:57;;;;;;;12.97;11.77;;;24.20;99.90;;;;;;5032072;28;20437;-68
2022/08/19 12:01:25;;;;;;;11.70;10.50;;;24.00;99.90;;;;;;5055177;23;20860;-68
2022/08/19 12:03:52;;;;;;;11.77;10.67;;;24.00;99.90;;;;;;5031823;28;20171;-68
2022/08/19 12:06:27;;;;;;;12.53;11.43;;;24.20;99.90;;;;;;5033010;28;20402;-68
2022/08/19 12:08:53;;;;;;;11.57;10.57;;;24.40;99.90;;;;;;5036071;28;20388;-67
2022/08/19 12:11:19;;;;;;;11.70;10.50;;;24.60;99.90;;;;;;5035695;28;20464;-67
2022/08/19 12:13:45;;;;;;;12.40;10.87;;;24.70;99.90;;;;;;5035821;28;20413;-69
2022/08/19 12:16:18;;;;;;;11.57;10.47;;;24.70;99.90;;;;;;5035425;28;20833;-69
2022/08/19 12:18:46;;;;;;;11.07;10.07;;;24.40;99.90;;;;;;5034565;28;20432;-67
2022/08/19 12:21:16;;;;;;;12.03;10.93;;;24.20;99.90;;;;;;5035397;28;20436;-68
2022/08/19 12:23:43;;;;;;;11.00;10.00;;;24.20;99.90;;;;;;5035442;28;20422;-70
2022/08/19 12:26:10;;;;;;;13.90;12.70;;;24.50;99.90;;;;;;5035704;28;20485;-69
2022/08/19 12:28:36;;;;;;;14.97;13.20;;;24.60;99.90;;;;;;5035413;28;20496;-68
2022/08/19 12:31:03;;;;;;;13.70;12.50;;;24.40;99.90;;;;;;5035381;28;20452;-68
2022/08/19 12:33:28;;;;;;;15.37;14.03;;;24.00;99.90;;;;;;5034929;28;20406;-68
2022/08/19 12:35:59;;;;;;;13.53;12.43;;;23.70;99.90;;;;;;5035417;28;20406;-69
2022/08/19 12:38:24;;;;;;;14.63;13.33;;;23.60;99.90;;;;;;5035435;28;20554;-69
2022/08/19 12:40:51;;;;;;;14.13;12.87;;;23.40;99.90;;;;;;5035452;28;20438;-69
2022/08/19 12:43:19;;;;;;;16.10;14.73;;;23.30;99.90;;;;;;5035540;28;20194;-69
2022/08/19 12:45:45;;;;;;;17.20;15.60;;;23.30;99.90;;;;;;5035355;28;20403;-69
2022/08/19 12:48:11;;;;;;;16.83;15.33;;;23.30;99.90;;;;;;5034795;28;20413;-69
2022/08/19 12:50:40;;;;;;;16.77;14.60;;;23.10;99.90;;;;;;5034805;28;20195;-69
2022/08/19 12:53:06;;;;;;;17.00;15.60;;;22.90;99.90;;;;;;5035811;28;20406;-69